sensor_id;sensor_type;location;lat;lon;timestamp;P1;P2;P0
62599;PMS7003;48671;48.922;2.346;2023-05-07T00:00:16;78.00;59.25;37.00
62599;PMS7003;48671;48.922;2.346;2023-05-07T00:02:43;76.40;56.40;34.20
62599;PMS7003;48671;48.922;2.346;2023-05-07T00:05:09;75.25;56.50;34.00
62599;PMS7003;48671;48.922;2.346;2023-05-07T00:07:35;75.75;56.00;35.25
62599;PMS7003;48671;48.922;2.346;2023-05-07T00:10:00;77.00;57.00;34.25
62599;PMS7003;48671;48.922;2.346;2023-05-07T00:12:26;83.50;66.75;42.00
62599;PMS7003;48671;48.922;2.346;2023-05-07T00:14:51;76.50;57.75;34.50
62599;PMS7003;48671;48.922;2.346;2023-05-07T00:17:17;78.25;58.25;34.75
62599;PMS7003;48671;48.922;2.346;2023-05-07T00:19:42;77.25;57.25;35.25
62599;PMS7003;48671;48.922;2.346;2023-05-07T00:22:07;75.00;56.00;36.00
62599;PMS7003;48671;48.922;2.346;2023-05-07T00:24:33;76.75;56.25;37.00
62599;PMS7003;48671;48.922;2.346;2023-05-07T00:26:58;74.75;56.25;34.50
62599;PMS7003;48671;48.922;2.346;2023-05-07T00:29:23;77.00;57.00;37.25
62599;PMS7003;48671;48.922;2.346;2023-05-07T00:31:49;83.50;67.50;45.25
62599;PMS7003;48671;48.922;2.346;2023-05-07T00:34:15;77.80;58.60;37.80
62599;PMS7003;48671;48.922;2.346;2023-05-07T00:36:40;75.25;56.00;36.50
62599;PMS7003;48671;48.922;2.346;2023-05-07T00:39:06;77.25;57.25;37.00
62599;PMS7003;48671;48.922;2.346;2023-05-07T00:41:31;75.00;55.75;34.75
62599;PMS7003;48671;48.922;2.346;2023-05-07T00:43:57;75.50;56.00;34.00
62599;PMS7003;48671;48.922;2.346;2023-05-07T00:46:22;78.00;59.50;37.00
62599;PMS7003;48671;48.922;2.346;2023-05-07T00:48:49;78.00;58.25;36.00
62599;PMS7003;48671;48.922;2.346;2023-05-07T00:51:15;77.00;57.20;36.00
62599;PMS7003;48671;48.922;2.346;2023-05-07T00:53:42;78.20;57.00;35.20
62599;PMS7003;48671;48.922;2.346;2023-05-07T00:56:08;74.75;55.25;31.00
62599;PMS7003;48671;48.922;2.346;2023-05-07T00:58:33;77.25;57.25;37.25
62599;PMS7003;48671;48.922;2.346;2023-05-07T01:00:59;73.25;54.00;37.00
62599;PMS7003;48671;48.922;2.346;2023-05-07T01:03:25;73.00;54.50;37.00
62599;PMS7003;48671;48.922;2.346;2023-05-07T01:05:50;72.75;53.75;37.25
62599;PMS7003;48671;48.922;2.346;2023-05-07T01:08:19;74.80;55.20;37.20
62599;PMS7003;48671;48.922;2.346;2023-05-07T01:10:45;72.40;53.80;36.00
62599;PMS7003;48671;48.922;2.346;2023-05-07T01:13:11;72.20;53.80;36.00
62599;PMS7003;48671;48.922;2.346;2023-05-07T01:15:38;60.40;51.00;32.00
62599;PMS7003;48671;48.922;2.346;2023-05-07T01:18:05;64.80;47.60;30.40
62599;PMS7003;48671;48.922;2.346;2023-05-07T01:20:31;70.00;52.80;36.00
62599;PMS7003;48671;48.922;2.346;2023-05-07T01:22:57;71.75;54.00;37.50
62599;PMS7003;48671;48.922;2.346;2023-05-07T01:25:22;71.50;53.25;37.75
62599;PMS7003;48671;48.922;2.346;2023-05-07T01:27:49;71.00;53.00;37.00
62599;PMS7003;48671;48.922;2.346;2023-05-07T01:30:15;70.25;53.00;37.25
62599;PMS7003;48671;48.922;2.346;2023-05-07T01:32:43;69.20;51.60;36.80
62599;PMS7003;48671;48.922;2.346;2023-05-07T01:35:30;69.20;51.40;36.60
62599;PMS7003;48671;48.922;2.346;2023-05-07T01:37:57;69.00;51.00;36.20
62599;PMS7003;48671;48.922;2.346;2023-05-07T01:40:24;66.00;49.25;35.50
62599;PMS7003;48671;48.922;2.346;2023-05-07T01:42:50;66.60;50.00;34.20
62599;PMS7003;48671;48.922;2.346;2023-05-07T01:45:17;65.80;49.20;36.20
62599;PMS7003;48671;48.922;2.346;2023-05-07T01:47:42;63.00;47.50;33.75
62599;PMS7003;48671;48.922;2.346;2023-05-07T01:50:09;66.80;49.80;35.20
62599;PMS7003;48671;48.922;2.346;2023-05-07T01:52:35;64.00;48.80;34.60
62599;PMS7003;48671;48.922;2.346;2023-05-07T01:55:02;66.80;49.60;34.80
62599;PMS7003;48671;48.922;2.346;2023-05-07T01:57:27;63.25;47.50;34.75
62599;PMS7003;48671;48.922;2.346;2023-05-07T01:59:53;64.00;48.50;34.25
62599;PMS7003;48671;48.922;2.346;2023-05-07T02:02:18;63.50;48.00;32.75
62599;PMS7003;48671;48.922;2.346;2023-05-07T02:04:43;65.00;48.50;33.75
62599;PMS7003;48671;48.922;2.346;2023-05-07T02:07:08;63.00;48.25;33.50
62599;PMS7003;48671;48.922;2.346;2023-05-07T02:09:35;65.00;48.80;35.00
62599;PMS7003;48671;48.922;2.346;2023-05-07T02:12:00;64.75;49.00;36.00
62599;PMS7003;48671;48.922;2.346;2023-05-07T02:14:26;66.00;50.00;35.25
62599;PMS7003;48671;48.922;2.346;2023-05-07T02:16:51;66.25;50.50;37.00
62599;PMS7003;48671;48.922;2.346;2023-05-07T02:19:17;65.75;49.50;33.75
62599;PMS7003;48671;48.922;2.346;2023-05-07T02:21:43;68.20;52.00;37.80
62599;PMS7003;48671;48.922;2.346;2023-05-07T02:24:08;67.00;50.25;36.00
62599;PMS7003;48671;48.922;2.346;2023-05-07T02:26:33;68.00;52.00;37.50
62599;PMS7003;48671;48.922;2.346;2023-05-07T02:28:59;65.50;50.25;37.25
62599;PMS7003;48671;48.922;2.346;2023-05-07T02:31:24;67.25;51.25;37.00
62599;PMS7003;48671;48.922;2.346;2023-05-07T02:33:50;66.75;51.50;37.50
62599;PMS7003;48671;48.922;2.346;2023-05-07T02:36:15;67.00;51.25;37.00
62599;PMS7003;48671;48.922;2.346;2023-05-07T02:38:40;66.00;50.25;37.00
62599;PMS7003;48671;48.922;2.346;2023-05-07T02:41:06;64.75;50.00;36.00
62599;PMS7003;48671;48.922;2.346;2023-05-07T02:43:31;66.50;50.75;38.00
62599;PMS7003;48671;48.922;2.346;2023-05-07T02:46:00;66.00;50.25;37.50
62599;PMS7003;48671;48.922;2.346;2023-05-07T02:48:26;74.20;55.00;38.00
62599;PMS7003;48671;48.922;2.346;2023-05-07T02:50:52;69.00;51.00;37.00
62599;PMS7003;48671;48.922;2.346;2023-05-07T02:53:17;67.00;50.25;35.25
62599;PMS7003;48671;48.922;2.346;2023-05-07T02:55:42;65.25;50.00;36.00
62599;PMS7003;48671;48.922;2.346;2023-05-07T02:58:08;62.60;47.60;33.80
62599;PMS7003;48671;48.922;2.346;2023-05-07T03:00:33;58.25;44.50;32.00
62599;PMS7003;48671;48.922;2.346;2023-05-07T03:02:59;60.75;46.50;33.50
62599;PMS7003;48671;48.922;2.346;2023-05-07T03:05:24;62.75;48.00;33.50
62599;PMS7003;48671;48.922;2.346;2023-05-07T03:07:49;65.50;49.75;37.00
62599;PMS7003;48671;48.922;2.346;2023-05-07T03:10:15;57.75;43.75;31.25
62599;PMS7003;48671;48.922;2.346;2023-05-07T03:12:40;54.00;39.25;27.25
62599;PMS7003;48671;48.922;2.346;2023-05-07T03:15:06;56.00;40.75;27.25
62599;PMS7003;48671;48.922;2.346;2023-05-07T03:17:32;51.50;37.75;26.00
62599;PMS7003;48671;48.922;2.346;2023-05-07T03:19:57;53.00;38.50;26.75
62599;PMS7003;48671;48.922;2.346;2023-05-07T03:22:22;51.75;38.00;26.75
62599;PMS7003;48671;48.922;2.346;2023-05-07T03:24:48;53.25;40.00;28.50
62599;PMS7003;48671;48.922;2.346;2023-05-07T03:27:13;48.25;35.75;24.75
62599;PMS7003;48671;48.922;2.346;2023-05-07T03:29:38;52.50;38.00;25.50
62599;PMS7003;48671;48.922;2.346;2023-05-07T03:32:03;50.75;38.00;26.00
62599;PMS7003;48671;48.922;2.346;2023-05-07T03:34:29;47.50;36.00;25.50
62599;PMS7003;48671;48.922;2.346;2023-05-07T03:36:54;61.00;46.25;34.00
62599;PMS7003;48671;48.922;2.346;2023-05-07T03:39:20;63.00;48.20;35.00
62599;PMS7003;48671;48.922;2.346;2023-05-07T03:41:46;66.00;51.00;38.00
62599;PMS7003;48671;48.922;2.346;2023-05-07T03:44:11;67.25;50.75;38.25
62599;PMS7003;48671;48.922;2.346;2023-05-07T03:46:36;66.75;50.50;37.25
62599;PMS7003;48671;48.922;2.346;2023-05-07T03:49:02;65.50;50.25;37.50
62599;PMS7003;48671;48.922;2.346;2023-05-07T03:51:27;66.25;50.75;37.00
62599;PMS7003;48671;48.922;2.346;2023-05-07T03:53:52;67.00;51.00;37.25
62599;PMS7003;48671;48.922;2.346;2023-05-07T03:56:18;66.00;50.25;38.00
62599;PMS7003;48671;48.922;2.346;2023-05-07T03:58:44;62.40;48.40;36.00
62599;PMS7003;48671;48.922;2.346;2023-05-07T04:01:09;67.00;52.00;37.25
62599;PMS7003;48671;48.922;2.346;2023-05-07T04:03:34;67.00;51.75;38.00
62599;PMS7003;48671;48.922;2.346;2023-05-07T04:06:00;67.25;51.00;36.75
62599;PMS7003;48671;48.922;2.346;2023-05-07T04:08:25;72.25;55.25;39.00
62599;PMS7003;48671;48.922;2.346;2023-05-07T04:10:57;75.50;57.25;38.75
62599;PMS7003;48671;48.922;2.346;2023-05-07T04:13:23;75.60;57.00;39.00
62599;PMS7003;48671;48.922;2.346;2023-05-07T04:15:49;74.00;55.80;37.00
62599;PMS7003;48671;48.922;2.346;2023-05-07T04:18:15;76.25;57.25;37.75
62599;PMS7003;48671;48.922;2.346;2023-05-07T04:20:40;74.00;55.00;35.50
62599;PMS7003;48671;48.922;2.346;2023-05-07T04:23:06;72.75;54.25;36.25
62599;PMS7003;48671;48.922;2.346;2023-05-07T04:25:31;73.00;55.00;36.00
62599;PMS7003;48671;48.922;2.346;2023-05-07T04:27:57;73.50;55.25;37.00
62599;PMS7003;48671;48.922;2.346;2023-05-07T04:30:22;72.00;54.50;37.00
62599;PMS7003;48671;48.922;2.346;2023-05-07T04:32:48;72.00;55.00;38.00
62599;PMS7003;48671;48.922;2.346;2023-05-07T04:35:13;73.00;55.00;38.00
62599;PMS7003;48671;48.922;2.346;2023-05-07T04:37:39;73.00;55.00;36.00
62599;PMS7003;48671;48.922;2.346;2023-05-07T04:40:05;74.50;55.25;36.50
62599;PMS7003;48671;48.922;2.346;2023-05-07T04:42:31;70.40;53.00;36.00
62599;PMS7003;48671;48.922;2.346;2023-05-07T04:44:56;73.50;55.25;37.25
62599;PMS7003;48671;48.922;2.346;2023-05-07T04:47:21;71.75;53.00;36.75
62599;PMS7003;48671;48.922;2.346;2023-05-07T04:49:46;74.00;55.00;37.25
62599;PMS7003;48671;48.922;2.346;2023-05-07T04:52:12;70.25;53.50;37.00
62599;PMS7003;48671;48.922;2.346;2023-05-07T04:54:37;70.50;54.00;37.25
62599;PMS7003;48671;48.922;2.346;2023-05-07T04:57:05;68.25;53.00;37.25
62599;PMS7003;48671;48.922;2.346;2023-05-07T04:59:30;68.40;52.00;37.40
62599;PMS7003;48671;48.922;2.346;2023-05-07T05:01:57;67.80;51.60;37.60
62599;PMS7003;48671;48.922;2.346;2023-05-07T05:04:22;68.25;52.00;37.50
62599;PMS7003;48671;48.922;2.346;2023-05-07T05:06:48;69.00;52.00;37.25
62599;PMS7003;48671;48.922;2.346;2023-05-07T05:09:13;129.25;99.75;51.50
62599;PMS7003;48671;48.922;2.346;2023-05-07T05:11:39;66.50;51.00;36.50
62599;PMS7003;48671;48.922;2.346;2023-05-07T05:14:04;70.00;53.00;37.25
62599;PMS7003;48671;48.922;2.346;2023-05-07T05:16:30;69.00;52.25;37.25
62599;PMS7003;48671;48.922;2.346;2023-05-07T05:18:55;65.50;50.25;36.00
62599;PMS7003;48671;48.922;2.346;2023-05-07T05:21:20;64.50;49.00;34.25
62599;PMS7003;48671;48.922;2.346;2023-05-07T05:23:46;65.25;49.75;36.00
62599;PMS7003;48671;48.922;2.346;2023-05-07T05:26:12;67.00;51.00;36.50
62599;PMS7003;48671;48.922;2.346;2023-05-07T05:28:37;67.75;51.00;36.25
62599;PMS7003;48671;48.922;2.346;2023-05-07T05:31:02;67.00;50.25;35.00
62599;PMS7003;48671;48.922;2.346;2023-05-07T05:33:28;64.00;48.75;34.75
62599;PMS7003;48671;48.922;2.346;2023-05-07T05:35:53;66.50;49.50;35.25
62599;PMS7003;48671;48.922;2.346;2023-05-07T05:38:19;67.40;50.40;36.60
62599;PMS7003;48671;48.922;2.346;2023-05-07T05:40:45;65.40;50.00;35.20
62599;PMS7003;48671;48.922;2.346;2023-05-07T05:43:11;68.00;52.00;37.25
62599;PMS7003;48671;48.922;2.346;2023-05-07T05:45:36;69.75;53.00;37.25
62599;PMS7003;48671;48.922;2.346;2023-05-07T05:48:02;69.00;50.50;35.75
62599;PMS7003;48671;48.922;2.346;2023-05-07T05:50:27;66.25;50.00;35.25
62599;PMS7003;48671;48.922;2.346;2023-05-07T05:52:52;68.25;51.75;36.25
62599;PMS7003;48671;48.922;2.346;2023-05-07T05:55:18;68.00;52.00;36.25
62599;PMS7003;48671;48.922;2.346;2023-05-07T05:57:43;68.25;52.50;37.25
62599;PMS7003;48671;48.922;2.346;2023-05-07T06:00:09;66.25;50.75;36.00
62599;PMS7003;48671;48.922;2.346;2023-05-07T06:02:35;67.00;51.75;37.25
62599;PMS7003;48671;48.922;2.346;2023-05-07T06:05:00;66.50;51.00;37.00
62599;PMS7003;48671;48.922;2.346;2023-05-07T06:07:25;67.75;51.25;37.75
62599;PMS7003;48671;48.922;2.346;2023-05-07T06:09:51;67.00;51.50;38.00
62599;PMS7003;48671;48.922;2.346;2023-05-07T06:12:16;67.00;51.00;37.25
62599;PMS7003;48671;48.922;2.346;2023-05-07T06:14:44;64.50;48.25;35.25
62599;PMS7003;48671;48.922;2.346;2023-05-07T06:17:10;64.00;49.00;35.80
62599;PMS7003;48671;48.922;2.346;2023-05-07T06:19:35;64.75;50.00;36.75
62599;PMS7003;48671;48.922;2.346;2023-05-07T06:22:00;65.75;51.00;37.25
62599;PMS7003;48671;48.922;2.346;2023-05-07T06:24:27;65.40;51.00;37.20
62599;PMS7003;48671;48.922;2.346;2023-05-07T06:26:52;65.00;50.00;36.75
62599;PMS7003;48671;48.922;2.346;2023-05-07T06:29:18;67.75;52.25;38.50
62599;PMS7003;48671;48.922;2.346;2023-05-07T06:31:43;65.75;50.75;38.25
62599;PMS7003;48671;48.922;2.346;2023-05-07T06:34:08;67.25;51.25;38.25
62599;PMS7003;48671;48.922;2.346;2023-05-07T06:36:34;63.25;49.50;36.25
62599;PMS7003;48671;48.922;2.346;2023-05-07T06:39:00;64.50;49.75;37.00
62599;PMS7003;48671;48.922;2.346;2023-05-07T06:41:26;67.75;50.75;37.00
62599;PMS7003;48671;48.922;2.346;2023-05-07T06:43:51;66.00;51.00;38.00
62599;PMS7003;48671;48.922;2.346;2023-05-07T06:46:16;63.75;50.00;37.25
62599;PMS7003;48671;48.922;2.346;2023-05-07T06:48:42;62.50;49.50;37.75
62599;PMS7003;48671;48.922;2.346;2023-05-07T06:51:07;64.00;49.00;37.50
62599;PMS7003;48671;48.922;2.346;2023-05-07T06:53:32;64.25;49.25;38.25
62599;PMS7003;48671;48.922;2.346;2023-05-07T06:55:59;60.00;45.60;34.80
62599;PMS7003;48671;48.922;2.346;2023-05-07T06:58:24;61.25;47.50;35.00
62599;PMS7003;48671;48.922;2.346;2023-05-07T07:00:49;57.75;45.75;35.00
62599;PMS7003;48671;48.922;2.346;2023-05-07T07:03:15;59.50;46.00;34.00
62599;PMS7003;48671;48.922;2.346;2023-05-07T07:05:41;58.75;45.00;33.00
62599;PMS7003;48671;48.922;2.346;2023-05-07T07:08:07;60.80;48.00;36.20
62599;PMS7003;48671;48.922;2.346;2023-05-07T07:10:32;64.00;48.75;37.25
62599;PMS7003;48671;48.922;2.346;2023-05-07T07:12:57;63.75;49.50;37.25
62599;PMS7003;48671;48.922;2.346;2023-05-07T07:15:23;66.00;51.75;38.25
62599;PMS7003;48671;48.922;2.346;2023-05-07T07:17:50;64.40;50.00;37.20
62599;PMS7003;48671;48.922;2.346;2023-05-07T07:20:15;61.25;48.25;36.75
62599;PMS7003;48671;48.922;2.346;2023-05-07T07:22:41;58.75;46.25;34.25
62599;PMS7003;48671;48.922;2.346;2023-05-07T07:25:06;62.00;48.50;37.25
62599;PMS7003;48671;48.922;2.346;2023-05-07T07:27:32;63.00;48.00;36.50
62599;PMS7003;48671;48.922;2.346;2023-05-07T07:29:57;64.00;48.25;36.50
62599;PMS7003;48671;48.922;2.346;2023-05-07T07:32:22;64.25;48.75;36.75
62599;PMS7003;48671;48.922;2.346;2023-05-07T07:34:47;60.25;47.00;34.50
62599;PMS7003;48671;48.922;2.346;2023-05-07T07:37:13;60.00;47.00;36.00
62599;PMS7003;48671;48.922;2.346;2023-05-07T07:39:38;65.25;50.00;37.25
62599;PMS7003;48671;48.922;2.346;2023-05-07T07:42:03;63.75;50.00;37.25
62599;PMS7003;48671;48.922;2.346;2023-05-07T07:44:29;66.25;50.50;37.75
62599;PMS7003;48671;48.922;2.346;2023-05-07T07:46:54;64.00;49.50;37.75
62599;PMS7003;48671;48.922;2.346;2023-05-07T07:49:19;64.50;50.00;38.00
62599;PMS7003;48671;48.922;2.346;2023-05-07T07:51:45;65.25;51.00;38.25
62599;PMS7003;48671;48.922;2.346;2023-05-07T07:54:10;65.00;51.00;38.25
62599;PMS7003;48671;48.922;2.346;2023-05-07T07:56:36;61.25;48.25;34.25
62599;PMS7003;48671;48.922;2.346;2023-05-07T07:59:01;62.75;48.75;35.75
62599;PMS7003;48671;48.922;2.346;2023-05-07T08:01:28;57.75;45.00;34.00
62599;PMS7003;48671;48.922;2.346;2023-05-07T08:03:55;59.40;46.80;34.60
62599;PMS7003;48671;48.922;2.346;2023-05-07T08:06:20;63.50;49.00;36.25
62599;PMS7003;48671;48.922;2.346;2023-05-07T08:08:45;61.00;48.00;36.25
62599;PMS7003;48671;48.922;2.346;2023-05-07T08:11:11;58.25;45.75;33.75
62599;PMS7003;48671;48.922;2.346;2023-05-07T08:13:36;62.00;48.50;36.00
62599;PMS7003;48671;48.922;2.346;2023-05-07T08:16:03;58.00;45.00;32.00
62599;PMS7003;48671;48.922;2.346;2023-05-07T08:18:29;60.60;46.40;34.00
62599;PMS7003;48671;48.922;2.346;2023-05-07T08:20:54;60.00;46.50;34.25
62599;PMS7003;48671;48.922;2.346;2023-05-07T08:23:20;63.00;48.25;35.00
62599;PMS7003;48671;48.922;2.346;2023-05-07T08:25:46;61.60;48.00;35.20
62599;PMS7003;48671;48.922;2.346;2023-05-07T08:28:11;64.00;48.50;37.00
62599;PMS7003;48671;48.922;2.346;2023-05-07T08:30:36;63.00;49.25;37.00
62599;PMS7003;48671;48.922;2.346;2023-05-07T08:33:02;63.00;49.00;37.00
62599;PMS7003;48671;48.922;2.346;2023-05-07T08:35:27;62.75;48.75;36.25
62599;PMS7003;48671;48.922;2.346;2023-05-07T08:37:53;63.75;49.75;37.00
62599;PMS7003;48671;48.922;2.346;2023-05-07T08:40:19;62.60;49.00;36.00
62599;PMS7003;48671;48.922;2.346;2023-05-07T08:42:49;59.60;45.80;33.20
62599;PMS7003;48671;48.922;2.346;2023-05-07T08:45:17;58.80;46.20;34.00
62599;PMS7003;48671;48.922;2.346;2023-05-07T08:47:44;60.00;47.40;35.20
62599;PMS7003;48671;48.922;2.346;2023-05-07T08:50:13;57.80;45.80;33.20
62599;PMS7003;48671;48.922;2.346;2023-05-07T08:52:39;61.25;47.25;34.50
62599;PMS7003;48671;48.922;2.346;2023-05-07T08:55:05;59.20;46.00;33.40
62599;PMS7003;48671;48.922;2.346;2023-05-07T08:57:32;60.00;48.00;35.00
62599;PMS7003;48671;48.922;2.346;2023-05-07T08:59:57;60.50;46.00;34.00
62599;PMS7003;48671;48.922;2.346;2023-05-07T09:02:22;60.00;46.75;33.25
62599;PMS7003;48671;48.922;2.346;2023-05-07T09:04:48;55.25;43.25;31.75
62599;PMS7003;48671;48.922;2.346;2023-05-07T09:07:13;55.00;44.00;32.25
62599;PMS7003;48671;48.922;2.346;2023-05-07T09:09:38;62.25;48.25;36.00
62599;PMS7003;48671;48.922;2.346;2023-05-07T09:12:04;57.25;45.25;32.75
62599;PMS7003;48671;48.922;2.346;2023-05-07T09:14:29;57.75;45.00;33.50
62599;PMS7003;48671;48.922;2.346;2023-05-07T09:16:55;59.00;47.25;34.75
62599;PMS7003;48671;48.922;2.346;2023-05-07T09:19:24;61.00;48.00;35.00
62599;PMS7003;48671;48.922;2.346;2023-05-07T09:21:57;59.40;47.60;35.00
62599;PMS7003;48671;48.922;2.346;2023-05-07T09:24:23;58.40;49.20;36.60
62599;PMS7003;48671;48.922;2.346;2023-05-07T09:26:49;63.25;50.25;37.00
62599;PMS7003;48671;48.922;2.346;2023-05-07T09:29:15;66.00;50.50;37.25
62599;PMS7003;48671;48.922;2.346;2023-05-07T09:31:40;62.75;49.50;35.25
62599;PMS7003;48671;48.922;2.346;2023-05-07T09:34:06;59.00;50.00;37.00
62599;PMS7003;48671;48.922;2.346;2023-05-07T09:36:31;62.75;50.00;37.50
62599;PMS7003;48671;48.922;2.346;2023-05-07T09:38:59;61.60;51.60;38.00
62599;PMS7003;48671;48.922;2.346;2023-05-07T09:41:25;62.60;49.20;36.20
62599;PMS7003;48671;48.922;2.346;2023-05-07T09:43:54;61.25;48.00;36.00
62599;PMS7003;48671;48.922;2.346;2023-05-07T09:46:20;62.60;52.00;38.20
62599;PMS7003;48671;48.922;2.346;2023-05-07T09:48:56;67.20;52.00;38.20
62599;PMS7003;48671;48.922;2.346;2023-05-07T09:54:10;61.80;49.60;35.40
62599;PMS7003;48671;48.922;2.346;2023-05-07T09:56:36;60.00;50.00;37.00
62599;PMS7003;48671;48.922;2.346;2023-05-07T09:59:03;66.40;51.40;38.00
62599;PMS7003;48671;48.922;2.346;2023-05-07T10:01:31;65.80;52.00;37.40
62599;PMS7003;48671;48.922;2.346;2023-05-07T10:04:01;66.20;51.80;38.40
62599;PMS7003;48671;48.922;2.346;2023-05-07T10:06:28;65.60;51.60;37.80
62599;PMS7003;48671;48.922;2.346;2023-05-07T10:08:55;67.20;53.00;39.40
62599;PMS7003;48671;48.922;2.346;2023-05-07T10:11:21;65.80;52.00;38.00
62599;PMS7003;48671;48.922;2.346;2023-05-07T10:13:47;59.80;49.80;36.40
62599;PMS7003;48671;48.922;2.346;2023-05-07T10:16:13;58.40;49.20;35.20
62599;PMS7003;48671;48.922;2.346;2023-05-07T10:18:40;60.40;50.00;36.00
62599;PMS7003;48671;48.922;2.346;2023-05-07T10:21:15;66.20;51.20;37.20
62599;PMS7003;48671;48.922;2.346;2023-05-07T10:23:45;67.20;52.60;39.80
62599;PMS7003;48671;48.922;2.346;2023-05-07T10:26:15;64.80;53.00;38.60
62599;PMS7003;48671;48.922;2.346;2023-05-07T10:28:44;62.80;52.20;38.00
62599;PMS7003;48671;48.922;2.346;2023-05-07T10:32:19;58.80;49.00;36.20
62599;PMS7003;48671;48.922;2.346;2023-05-07T10:34:28;66.80;51.80;38.00
62599;PMS7003;48671;48.922;2.346;2023-05-07T10:36:59;67.20;53.20;40.00
62599;PMS7003;48671;48.922;2.346;2023-05-07T10:39:25;64.20;50.00;37.40
62599;PMS7003;48671;48.922;2.346;2023-05-07T10:41:51;66.00;51.40;38.00
62599;PMS7003;48671;48.922;2.346;2023-05-07T10:44:27;58.50;49.75;36.25
62599;PMS7003;48671;48.922;2.346;2023-05-07T10:47:06;62.60;50.00;35.40
62599;PMS7003;48671;48.922;2.346;2023-05-07T10:49:34;66.00;52.20;39.00
62599;PMS7003;48671;48.922;2.346;2023-05-07T10:52:23;62.00;47.40;34.20
62599;PMS7003;48671;48.922;2.346;2023-05-07T10:55:33;54.20;46.60;33.20
62599;PMS7003;48671;48.922;2.346;2023-05-07T10:57:50;59.00;49.20;36.20
62599;PMS7003;48671;48.922;2.346;2023-05-07T11:05:23;58.00;48.60;36.00
62599;PMS7003;48671;48.922;2.346;2023-05-07T11:08:02;61.40;51.00;39.20
62599;PMS7003;48671;48.922;2.346;2023-05-07T11:13:17;53.80;42.40;33.00
62599;PMS7003;48671;48.922;2.346;2023-05-07T11:15:46;56.00;46.80;36.40
62599;PMS7003;48671;48.922;2.346;2023-05-07T11:18:13;53.40;45.40;34.40
62599;PMS7003;48671;48.922;2.346;2023-05-07T11:20:50;63.60;51.60;40.80
62599;PMS7003;48671;48.922;2.346;2023-05-07T11:26:09;54.80;46.00;35.20
62599;PMS7003;48671;48.922;2.346;2023-05-07T11:28:36;50.80;43.60;33.20
62599;PMS7003;48671;48.922;2.346;2023-05-07T11:31:03;54.20;45.80;36.00
62599;PMS7003;48671;48.922;2.346;2023-05-07T11:33:33;53.25;45.25;35.00
62599;PMS7003;48671;48.922;2.346;2023-05-07T11:35:59;53.40;45.40;35.00
62599;PMS7003;48671;48.922;2.346;2023-05-07T11:38:25;58.25;45.25;35.00
62599;PMS7003;48671;48.922;2.346;2023-05-07T11:40:51;57.00;45.75;34.25
62599;PMS7003;48671;48.922;2.346;2023-05-07T11:43:20;58.00;46.20;34.60
62599;PMS7003;48671;48.922;2.346;2023-05-07T11:45:45;57.25;45.25;34.25
62599;PMS7003;48671;48.922;2.346;2023-05-07T11:48:11;56.80;46.20;35.20
62599;PMS7003;48671;48.922;2.346;2023-05-07T11:50:49;58.40;46.20;36.00
62599;PMS7003;48671;48.922;2.346;2023-05-07T11:53:25;58.60;45.80;35.00
62599;PMS7003;48671;48.922;2.346;2023-05-07T11:55:57;57.40;47.00;36.20
62599;PMS7003;48671;48.922;2.346;2023-05-07T11:58:23;53.60;42.80;32.40
62599;PMS7003;48671;48.922;2.346;2023-05-07T12:00:50;54.40;44.60;34.00
62599;PMS7003;48671;48.922;2.346;2023-05-07T12:03:17;55.40;45.20;33.20
62599;PMS7003;48671;48.922;2.346;2023-05-07T12:05:43;47.75;40.50;29.25
62599;PMS7003;48671;48.922;2.346;2023-05-07T12:08:13;53.60;43.40;32.20
62599;PMS7003;48671;48.922;2.346;2023-05-07T12:10:42;55.20;45.00;33.20
62599;PMS7003;48671;48.922;2.346;2023-05-07T12:13:21;52.00;43.00;32.20
62599;PMS7003;48671;48.922;2.346;2023-05-07T12:15:51;56.00;44.80;33.80
62599;PMS7003;48671;48.922;2.346;2023-05-07T12:18:18;56.60;45.20;34.20
62599;PMS7003;48671;48.922;2.346;2023-05-07T12:20:44;54.40;43.00;32.20
62599;PMS7003;48671;48.922;2.346;2023-05-07T12:23:10;55.00;44.00;32.75
62599;PMS7003;48671;48.922;2.346;2023-05-07T12:25:36;53.00;42.50;32.25
62599;PMS7003;48671;48.922;2.346;2023-05-07T12:28:03;40.40;37.00;27.80
62599;PMS7003;48671;48.922;2.346;2023-05-07T12:30:32;43.40;38.00;29.60
62599;PMS7003;48671;48.922;2.346;2023-05-07T12:33:02;34.20;32.60;25.00
62599;PMS7003;48671;48.922;2.346;2023-05-07T12:35:31;38.00;35.25;27.00
62599;PMS7003;48671;48.922;2.346;2023-05-07T12:38:02;31.80;31.20;23.80
62599;PMS7003;48671;48.922;2.346;2023-05-07T12:40:39;39.40;36.20;26.60
62599;PMS7003;48671;48.922;2.346;2023-05-07T12:43:28;50.60;40.00;29.20
62599;PMS7003;48671;48.922;2.346;2023-05-07T12:45:55;39.60;36.40;27.80
62599;PMS7003;48671;48.922;2.346;2023-05-07T12:48:22;41.80;37.40;27.40
62599;PMS7003;48671;48.922;2.346;2023-05-07T12:50:52;44.80;39.60;30.00
62599;PMS7003;48671;48.922;2.346;2023-05-07T12:53:20;38.20;34.80;26.60
62599;PMS7003;48671;48.922;2.346;2023-05-07T12:55:49;48.80;42.20;31.40
62599;PMS7003;48671;48.922;2.346;2023-05-07T13:00:49;41.60;37.00;28.00
62599;PMS7003;48671;48.922;2.346;2023-05-07T13:05:48;43.20;38.00;29.20
62599;PMS7003;48671;48.922;2.346;2023-05-07T13:08:23;45.80;40.00;30.00
62599;PMS7003;48671;48.922;2.346;2023-05-07T13:10:49;44.20;37.00;28.20
62599;PMS7003;48671;48.922;2.346;2023-05-07T13:13:14;44.50;38.50;29.25
62599;PMS7003;48671;48.922;2.346;2023-05-07T13:15:39;41.25;36.50;28.00
62599;PMS7003;48671;48.922;2.346;2023-05-07T13:18:05;47.25;41.25;30.75
62599;PMS7003;48671;48.922;2.346;2023-05-07T13:20:30;45.25;39.00;29.00
62599;PMS7003;48671;48.922;2.346;2023-05-07T13:22:55;47.25;41.00;30.00
62599;PMS7003;48671;48.922;2.346;2023-05-07T13:25:21;48.75;41.50;32.25
62599;PMS7003;48671;48.922;2.346;2023-05-07T13:27:46;48.50;42.25;31.25
62599;PMS7003;48671;48.922;2.346;2023-05-07T13:30:11;46.25;40.00;29.00
62599;PMS7003;48671;48.922;2.346;2023-05-07T13:32:37;18.75;18.00;9.25
62599;PMS7003;48671;48.922;2.346;2023-05-07T13:35:02;37.00;34.00;26.75
62599;PMS7003;48671;48.922;2.346;2023-05-07T13:37:28;41.25;34.75;24.25
62599;PMS7003;48671;48.922;2.346;2023-05-07T13:39:53;32.25;31.25;24.00
62599;PMS7003;48671;48.922;2.346;2023-05-07T13:42:18;31.00;31.00;24.00
62599;PMS7003;48671;48.922;2.346;2023-05-07T13:44:44;20.50;20.00;15.00
62599;PMS7003;48671;48.922;2.346;2023-05-07T13:47:10;24.00;24.00;19.80
62599;PMS7003;48671;48.922;2.346;2023-05-07T13:49:35;22.75;14.75;9.50
62599;PMS7003;48671;48.922;2.346;2023-05-07T13:52:00;21.00;20.25;15.75
62599;PMS7003;48671;48.922;2.346;2023-05-07T13:54:26;17.25;12.25;6.25
62599;PMS7003;48671;48.922;2.346;2023-05-07T13:56:51;22.25;16.75;9.75
62599;PMS7003;48671;48.922;2.346;2023-05-07T13:59:17;19.00;12.25;8.25
62599;PMS7003;48671;48.922;2.346;2023-05-07T14:01:42;17.00;11.00;5.75